Hovedside
METAR-TAF:

METAR-TAF

Lufthavner :

Sørkjosen, Norge

Sørkjosen lufthavn

breddegrad: 69-47N, lengdegrad: 020-58E, høyde over havet: 0 m

Gjeldene værobservasjon

Denne rapporten ble laget for 19 minutter siden, klokken 04:20 UTC
Vind 6 kt fra Øst-sørøst
Temperatur -5°C
Luftfuktighet 68%
Trykk 1011 hPa
Sikt 10 km eller mer
ingen skyer under 1500 m og ingen bygeskyer

METAR: ENSR 250420Z 15009KT CAVOK M05/M10 Q1011 WIND 1119FT 12006KT

Tid: 06:39 (04:39 UTC)


TAF: fraværende

Værobservasjoner og værvarsel for over 4000 flyplasser (METAR- og TAF-rapporter).

Tilgjengelige stasjoner er representert av de røde og gule prikkene på kartet.

Hold musepekeren over prikken for å se navnet på stasjonen.

Klikk så for å se værobservasjoner og -varsler.

For å forandre kartet kan du klikke på den grønne knappen med svart kryss for å zoome inn, på den grønne knappen med strek for å zoome ut, eller på de grønne pilene for å se tilstøtende kart.


METAR-TAF: